createdAt,value
2023-05-06T00:00:50.109Z,1.87
2023-05-06T00:03:18.189Z,2.40
2023-05-06T00:05:47.521Z,2.33
2023-05-06T00:08:16.603Z,2.50
2023-05-06T00:10:44.339Z,2.87
2023-05-06T00:13:12.848Z,2.47
2023-05-06T00:15:40.973Z,2.30
2023-05-06T00:18:08.919Z,2.43
2023-05-06T00:20:36.661Z,2.57
2023-05-06T00:23:04.406Z,2.60
2023-05-06T00:25:33.490Z,2.40
2023-05-06T00:28:01.268Z,2.30
2023-05-06T00:30:29.209Z,3.40
2023-05-06T00:32:57.086Z,2.60
2023-05-06T00:35:24.853Z,2.70
2023-05-06T00:37:58.590Z,3.03
2023-05-06T00:40:26.390Z,2.60
2023-05-06T00:42:55.750Z,2.43
2023-05-06T00:45:23.640Z,2.47
2023-05-06T00:47:51.678Z,2.70
2023-05-06T00:50:19.804Z,2.20
2023-05-06T00:52:47.752Z,2.30
2023-05-06T00:55:15.836Z,2.30
2023-05-06T00:57:43.639Z,2.77
2023-05-06T01:00:13.660Z,2.57
2023-05-06T01:02:47.131Z,2.80
2023-05-06T01:05:16.655Z,2.80
2023-05-06T01:07:53.609Z,3.13
2023-05-06T01:10:27.852Z,2.40
2023-05-06T01:13:03.940Z,2.63
2023-05-06T01:15:37.694Z,2.70
2023-05-06T01:18:10.194Z,3.27
2023-05-06T01:20:39.440Z,2.60
2023-05-06T01:23:13.090Z,2.40
2023-05-06T01:25:41.466Z,2.60
2023-05-06T01:28:11.671Z,2.97
2023-05-06T01:30:45.535Z,3.07
2023-05-06T01:33:20.718Z,3.00
2023-05-06T01:35:56.670Z,3.03
2023-05-06T01:38:32.325Z,2.73
2023-05-06T01:41:02.813Z,2.83
2023-05-06T01:43:38.821Z,2.80
2023-05-06T01:46:12.531Z,2.87
2023-05-06T01:48:41.850Z,2.83
2023-05-06T01:51:09.826Z,3.13
2023-05-06T01:53:38.926Z,2.83
2023-05-06T01:56:07.098Z,3.63
2023-05-06T01:58:34.830Z,3.10
2023-05-06T02:01:02.619Z,3.27
2023-05-06T02:03:30.465Z,3.00
2023-05-06T02:05:58.291Z,3.20
2023-05-06T02:08:26.169Z,3.20
2023-05-06T02:10:55.330Z,2.83
2023-05-06T02:13:23.068Z,2.50
2023-05-06T02:15:53.680Z,2.90
2023-05-06T02:18:22.178Z,3.20
2023-05-06T02:20:49.913Z,3.10
2023-05-06T02:23:17.689Z,3.00
2023-05-06T02:25:45.446Z,2.70
2023-05-06T02:28:14.591Z,2.73
2023-05-06T02:30:42.340Z,3.20
2023-05-06T02:33:10.079Z,2.80
2023-05-06T02:35:37.853Z,3.00
2023-05-06T02:38:05.621Z,3.47
2023-05-06T02:40:33.354Z,2.83
2023-05-06T02:43:01.421Z,2.97
2023-05-06T02:45:30.652Z,3.13
2023-05-06T02:47:58.475Z,3.43
2023-05-06T02:50:26.375Z,3.00
2023-05-06T02:52:54.103Z,3.00
2023-05-06T02:55:21.817Z,3.60
2023-05-06T02:57:49.529Z,3.40
2023-05-06T03:00:17.968Z,3.07
2023-05-06T03:02:47.236Z,3.20
2023-05-06T03:05:15.037Z,3.13
2023-05-06T03:07:42.798Z,3.33
2023-05-06T03:10:11.495Z,3.60
2023-05-06T03:12:39.291Z,3.47
2023-05-06T03:15:08.214Z,3.40
2023-05-06T03:17:36.151Z,3.60
2023-05-06T03:20:08.143Z,3.20
2023-05-06T03:22:36.012Z,4.03
2023-05-06T03:25:03.856Z,3.37
2023-05-06T03:27:31.569Z,3.17
2023-05-06T03:29:59.315Z,3.53
2023-05-06T03:32:27.139Z,3.23
2023-05-06T03:34:54.902Z,3.47
2023-05-06T03:37:24.046Z,3.27
2023-05-06T03:39:51.799Z,3.30
2023-05-06T03:42:19.535Z,3.33
2023-05-06T03:44:47.231Z,3.50
2023-05-06T03:47:14.954Z,3.87
2023-05-06T03:49:42.605Z,3.87
2023-05-06T03:52:10.349Z,3.87
2023-05-06T03:54:39.442Z,3.67
2023-05-06T03:57:07.208Z,3.40
2023-05-06T03:59:34.960Z,3.70
2023-05-06T04:02:02.748Z,3.47
2023-05-06T04:04:30.514Z,3.40
2023-05-06T04:06:58.198Z,3.60
2023-05-06T04:09:25.992Z,3.37
2023-05-06T04:11:55.076Z,3.73
2023-05-06T04:14:23.192Z,3.00
2023-05-06T04:16:50.940Z,3.30
2023-05-06T04:19:18.731Z,3.30
2023-05-06T04:21:46.434Z,3.73
2023-05-06T04:24:15.974Z,3.80
2023-05-06T04:26:43.757Z,3.57
2023-05-06T04:29:12.859Z,3.53
2023-05-06T04:31:40.624Z,3.40
2023-05-06T04:34:10.832Z,3.83
2023-05-06T04:36:40.576Z,3.70
2023-05-06T04:39:08.932Z,3.50
2023-05-06T04:41:36.820Z,3.37
2023-05-06T04:44:04.815Z,3.10
2023-05-06T04:46:34.032Z,3.20
2023-05-06T04:49:01.769Z,3.73
2023-05-06T04:51:29.697Z,3.83
2023-05-06T04:53:57.431Z,3.40
2023-05-06T04:56:26.140Z,3.23
2023-05-06T04:58:53.909Z,3.70
2023-05-06T05:01:21.697Z,3.37
2023-05-06T05:03:50.854Z,3.83
2023-05-06T05:06:18.615Z,3.30
2023-05-06T05:08:46.400Z,3.83
2023-05-06T05:11:14.155Z,3.50
2023-05-06T05:13:41.885Z,4.07
2023-05-06T05:16:09.605Z,3.70
2023-05-06T05:18:37.346Z,3.27
2023-05-06T05:21:06.551Z,3.23
2023-05-06T05:23:34.249Z,3.87
2023-05-06T05:26:02.454Z,3.73
2023-05-06T05:28:30.237Z,3.70
2023-05-06T05:31:03.085Z,3.47
2023-05-06T05:33:30.908Z,3.60
2023-05-06T05:35:59.042Z,3.30
2023-05-06T05:38:28.282Z,3.77
2023-05-06T05:40:56.043Z,3.43
2023-05-06T05:43:25.976Z,3.30
2023-05-06T05:45:53.867Z,4.40
2023-05-06T05:48:21.617Z,3.73
2023-05-06T05:50:49.311Z,3.50
2023-05-06T05:53:17.042Z,3.80
2023-05-06T05:55:46.171Z,3.70
2023-05-06T05:58:13.869Z,3.70
2023-05-06T06:00:41.578Z,3.60
2023-05-06T06:03:09.608Z,3.80
2023-05-06T06:05:37.550Z,3.73
2023-05-06T06:08:06.496Z,4.23
2023-05-06T06:10:34.259Z,3.57
2023-05-06T06:13:03.431Z,3.50
2023-05-06T06:15:31.686Z,3.60
2023-05-06T06:17:59.508Z,3.90
2023-05-06T06:20:27.305Z,3.50
2023-05-06T06:22:55.152Z,3.80
2023-05-06T06:25:23.065Z,3.63
2023-05-06T06:27:50.792Z,3.60
2023-05-06T06:30:19.954Z,7.40
2023-05-06T06:32:52.884Z,3.87
2023-05-06T06:35:21.162Z,4.07
2023-05-06T06:37:49.116Z,3.70
2023-05-06T06:40:17.255Z,3.70
2023-05-06T06:42:45.995Z,3.70
2023-05-06T06:45:15.217Z,4.10
2023-05-06T06:47:44.334Z,3.57
2023-05-06T06:50:12.431Z,3.73
2023-05-06T06:52:40.177Z,3.83
2023-05-06T06:55:09.241Z,3.57
2023-05-06T06:57:37.881Z,3.80
2023-05-06T07:00:06.042Z,4.33
2023-05-06T07:02:33.789Z,3.60
2023-05-06T07:05:03.027Z,3.97
2023-05-06T07:07:30.803Z,4.17
2023-05-06T07:09:58.805Z,4.23
2023-05-06T07:12:26.847Z,4.03
2023-05-06T07:14:54.591Z,4.00
2023-05-06T07:17:22.357Z,3.83
2023-05-06T07:19:50.173Z,6.87
2023-05-06T07:22:19.446Z,4.53
2023-05-06T07:24:47.208Z,3.83
2023-05-06T07:27:14.946Z,4.00
2023-05-06T07:29:42.695Z,3.43
2023-05-06T07:32:10.425Z,4.57
2023-05-06T07:34:39.462Z,3.90
2023-05-06T07:37:08.234Z,3.77
2023-05-06T07:39:37.359Z,4.17
2023-05-06T07:42:05.109Z,4.80
2023-05-06T07:44:32.852Z,4.70
2023-05-06T07:47:00.771Z,3.40
2023-05-06T07:49:30.861Z,4.10
2023-05-06T07:51:58.666Z,4.07
2023-05-06T07:54:26.570Z,4.07
2023-05-06T07:56:55.947Z,4.13
2023-05-06T07:59:23.984Z,4.27
2023-05-06T08:01:51.774Z,4.27
2023-05-06T08:04:19.584Z,4.20
2023-05-06T08:06:47.324Z,3.83
2023-05-06T08:09:22.761Z,4.60
2023-05-06T08:11:51.303Z,4.10
2023-05-06T08:14:20.445Z,5.23
2023-05-06T08:16:48.401Z,4.00
2023-05-06T08:19:16.222Z,4.40
2023-05-06T08:21:43.957Z,4.17
2023-05-06T08:24:13.604Z,4.50
2023-05-06T08:26:41.896Z,4.00
2023-05-06T08:29:09.621Z,4.10
2023-05-06T08:31:38.770Z,4.27
2023-05-06T08:34:06.515Z,4.20
2023-05-06T08:36:34.249Z,4.13
2023-05-06T08:39:01.973Z,3.73
2023-05-06T08:41:30.404Z,4.10
2023-05-06T08:43:59.415Z,3.60
2023-05-06T08:46:30.981Z,3.67
2023-05-06T08:49:00.619Z,4.50
2023-05-06T08:51:31.889Z,8.23
2023-05-06T08:54:01.709Z,3.93
2023-05-06T08:56:31.445Z,4.00
2023-05-06T08:58:59.541Z,4.23
2023-05-06T09:01:28.506Z,4.77
2023-05-06T09:03:58.197Z,3.93
2023-05-06T09:06:27.354Z,4.10
2023-05-06T09:08:55.073Z,4.20
2023-05-06T09:11:25.766Z,4.10
2023-05-06T09:14:08.981Z,3.63
2023-05-06T09:16:37.139Z,3.87
2023-05-06T09:19:05.238Z,3.53
2023-05-06T09:21:39.429Z,4.37
2023-05-06T09:24:08.634Z,3.83
2023-05-06T09:26:37.630Z,4.50
2023-05-06T09:29:06.181Z,3.73
2023-05-06T09:31:34.234Z,4.20
2023-05-06T09:34:02.042Z,3.97
2023-05-06T09:36:30.018Z,4.00
2023-05-06T09:38:59.152Z,3.90
2023-05-06T09:41:27.206Z,4.27
2023-05-06T09:43:56.249Z,3.40
2023-05-06T09:46:25.148Z,4.10
2023-05-06T09:48:54.369Z,4.03
2023-05-06T09:51:22.822Z,3.97
2023-05-06T09:53:50.652Z,3.70
2023-05-06T09:56:21.408Z,4.30
2023-05-06T09:58:51.172Z,4.30
2023-05-06T10:01:32.837Z,4.30
2023-05-06T10:04:06.871Z,4.17
2023-05-06T10:06:39.361Z,3.63
2023-05-06T10:09:09.138Z,3.87
2023-05-06T10:11:38.398Z,4.73
2023-05-06T10:14:07.393Z,4.83
2023-05-06T10:16:36.204Z,4.10
2023-05-06T10:19:07.410Z,4.17
2023-05-06T10:21:40.524Z,4.30
2023-05-06T10:24:12.053Z,4.70
2023-05-06T10:26:43.491Z,4.73
2023-05-06T10:29:12.147Z,4.47
2023-05-06T10:31:45.476Z,4.07
2023-05-06T10:34:13.605Z,4.13
2023-05-06T10:36:44.449Z,4.30
2023-05-06T10:39:14.321Z,4.10
2023-05-06T10:41:43.843Z,4.10
2023-05-06T10:44:12.865Z,4.30
2023-05-06T10:46:58.714Z,4.57
2023-05-06T10:49:26.633Z,4.63
2023-05-06T10:52:13.615Z,3.90
2023-05-06T10:54:51.831Z,4.93
2023-05-06T10:57:26.542Z,5.13
2023-05-06T10:59:55.936Z,4.30
2023-05-06T11:02:25.193Z,4.60
2023-05-06T11:05:00.984Z,4.27
2023-05-06T11:07:28.847Z,4.33
2023-05-06T11:09:58.147Z,4.30
2023-05-06T11:12:49.347Z,4.10
2023-05-06T11:15:21.903Z,4.23
2023-05-06T11:17:49.694Z,4.33
2023-05-06T11:20:22.243Z,4.30
2023-05-06T11:22:50.176Z,4.30
2023-05-06T11:25:42.443Z,3.77
2023-05-06T11:28:13.027Z,4.43
2023-05-06T11:30:43.715Z,4.40
2023-05-06T11:33:19.976Z,4.47
2023-05-06T11:35:47.725Z,3.90
2023-05-06T11:38:15.594Z,3.93
2023-05-06T11:40:43.682Z,4.60
2023-05-06T11:43:14.220Z,4.20
2023-05-06T11:45:44.903Z,4.27
2023-05-06T11:48:13.290Z,4.43
2023-05-06T11:50:45.440Z,5.33
2023-05-06T11:53:13.329Z,4.33
2023-05-06T11:55:41.544Z,4.37
2023-05-06T11:58:16.467Z,4.00
2023-05-06T12:00:51.416Z,3.93
2023-05-06T12:03:19.917Z,4.30
2023-05-06T12:05:48.834Z,4.00
2023-05-06T12:08:26.863Z,4.60
2023-05-06T12:10:57.293Z,4.37
2023-05-06T12:13:26.715Z,4.53
2023-05-06T12:15:55.770Z,4.33
2023-05-06T12:18:24.405Z,4.20
2023-05-06T12:20:54.655Z,4.83
2023-05-06T12:23:22.803Z,4.50
2023-05-06T12:26:01.751Z,4.73
2023-05-06T12:28:31.888Z,4.40
2023-05-06T12:30:59.645Z,4.50
2023-05-06T12:33:27.403Z,4.20
2023-05-06T12:35:58.282Z,4.33
2023-05-06T12:38:26.141Z,4.57
2023-05-06T12:40:55.458Z,3.93
2023-05-06T12:43:32.330Z,3.90
2023-05-06T12:46:07.270Z,3.97
2023-05-06T12:48:35.427Z,3.40
2023-05-06T12:51:18.887Z,3.70
2023-05-06T12:53:47.070Z,4.87
2023-05-06T12:56:14.902Z,3.87
2023-05-06T12:58:44.021Z,4.23
2023-05-06T13:01:11.873Z,3.83
2023-05-06T13:03:41.040Z,4.00
2023-05-06T13:06:08.927Z,3.70
2023-05-06T13:08:36.594Z,3.30
2023-05-06T13:11:04.388Z,4.17
2023-05-06T13:13:32.106Z,4.10
2023-05-06T13:16:01.574Z,3.50
2023-05-06T13:18:30.375Z,4.07
2023-05-06T13:21:00.161Z,4.47
2023-05-06T13:23:28.005Z,5.83
2023-05-06T13:26:04.129Z,3.77
2023-05-06T13:28:35.379Z,3.70
2023-05-06T13:31:05.040Z,4.20
2023-05-06T13:33:33.473Z,4.10
2023-05-06T13:36:04.015Z,4.20
2023-05-06T13:38:32.911Z,4.10
2023-05-06T13:41:01.157Z,3.80
2023-05-06T13:43:28.869Z,4.40
2023-05-06T13:45:56.603Z,3.87
2023-05-06T13:48:25.896Z,3.83
2023-05-06T13:50:53.601Z,3.40
2023-05-06T13:53:21.549Z,3.70
2023-05-06T13:55:49.292Z,3.97
2023-05-06T13:58:18.145Z,4.37
2023-05-06T14:00:45.969Z,3.73
2023-05-06T14:03:13.682Z,4.20
2023-05-06T14:05:42.819Z,3.77
2023-05-06T14:08:10.545Z,3.40
2023-05-06T14:10:38.294Z,3.53
2023-05-06T14:13:07.288Z,3.50
2023-05-06T14:15:35.410Z,3.50
2023-05-06T14:18:03.203Z,3.70
2023-05-06T14:20:31.447Z,3.70
2023-05-06T14:23:01.532Z,3.60
2023-05-06T14:25:29.646Z,4.00
2023-05-06T14:27:57.463Z,3.90
2023-05-06T14:30:25.868Z,4.27
2023-05-06T14:32:53.709Z,3.90
2023-05-06T14:35:21.795Z,3.43
2023-05-06T14:37:49.565Z,4.13
2023-05-06T14:40:18.681Z,4.00
2023-05-06T14:42:46.652Z,4.00
2023-05-06T14:45:15.784Z,4.20
2023-05-06T14:47:43.970Z,4.40
2023-05-06T14:50:13.118Z,4.30
2023-05-06T14:52:41.744Z,5.83
2023-05-06T14:55:11.700Z,4.13
2023-05-06T14:57:41.070Z,4.50
2023-05-06T15:00:10.281Z,4.27
2023-05-06T15:02:40.569Z,4.00
2023-05-06T15:05:10.305Z,4.73
2023-05-06T15:07:38.282Z,4.30
2023-05-06T15:10:06.791Z,4.80
2023-05-06T15:12:34.683Z,4.97
2023-05-06T15:15:05.086Z,4.40
2023-05-06T15:17:33.412Z,4.37
2023-05-06T15:20:01.308Z,4.97
2023-05-06T15:22:29.138Z,4.87
2023-05-06T15:24:57.520Z,5.13
2023-05-06T15:27:25.384Z,4.30
2023-05-06T15:29:53.101Z,4.67
2023-05-06T15:32:22.272Z,5.10
2023-05-06T15:34:50.024Z,4.57
2023-05-06T15:37:19.269Z,4.53
2023-05-06T15:39:47.914Z,4.90
2023-05-06T15:42:15.897Z,4.47
2023-05-06T15:44:43.692Z,5.70
2023-05-06T15:47:11.433Z,4.77
2023-05-06T15:52:11.824Z,5.03
2023-05-06T15:54:40.987Z,5.17
2023-05-06T15:57:09.714Z,5.00
2023-05-06T15:59:37.503Z,5.00
2023-05-06T16:04:36.184Z,6.20
2023-05-06T16:07:05.602Z,6.00
2023-05-06T16:09:33.368Z,5.47
2023-05-06T16:12:01.323Z,5.13
2023-05-06T16:14:29.102Z,4.63
2023-05-06T16:16:56.876Z,4.57
2023-05-06T16:19:24.617Z,5.00
2023-05-06T16:21:53.023Z,5.03
2023-05-06T16:24:22.149Z,5.37
2023-05-06T16:26:49.889Z,5.23
2023-05-06T16:29:20.457Z,10.37
2023-05-06T16:31:48.620Z,7.30
2023-05-06T16:34:16.655Z,5.00
2023-05-06T16:36:44.670Z,5.37
2023-05-06T16:39:12.481Z,5.10
2023-05-06T16:41:41.596Z,5.13
2023-05-06T16:44:09.308Z,4.80
2023-05-06T16:46:37.098Z,4.70
2023-05-06T16:49:05.158Z,6.13
2023-05-06T16:51:33.153Z,4.63
2023-05-06T16:54:01.313Z,4.77
2023-05-06T16:56:44.063Z,4.60
2023-05-06T16:59:21.419Z,4.30
2023-05-06T17:01:49.867Z,4.50
2023-05-06T17:04:17.630Z,4.30
2023-05-06T17:06:45.614Z,4.40
2023-05-06T17:09:13.350Z,4.53
2023-05-06T17:11:41.076Z,4.60
2023-05-06T17:14:08.795Z,4.23
2023-05-06T17:16:39.085Z,4.77
2023-05-06T17:19:07.071Z,4.80
2023-05-06T17:21:34.806Z,4.90
2023-05-06T17:24:02.551Z,4.20
2023-05-06T17:26:32.399Z,4.50
2023-05-06T17:29:00.513Z,4.23
2023-05-06T17:31:28.563Z,4.53
2023-05-06T17:33:58.502Z,4.93
2023-05-06T17:36:26.397Z,4.50
2023-05-06T17:39:02.752Z,4.30
2023-05-06T17:41:30.475Z,4.13
2023-05-06T17:43:58.189Z,4.50
2023-05-06T17:46:26.217Z,4.00
2023-05-06T17:48:54.037Z,3.90
2023-05-06T17:51:23.191Z,4.13
2023-05-06T17:53:51.574Z,4.23
2023-05-06T17:56:20.217Z,3.97
2023-05-06T17:58:48.300Z,4.40
2023-05-06T18:01:16.326Z,3.80
2023-05-06T18:03:44.963Z,4.47
2023-05-06T18:06:12.976Z,4.70
2023-05-06T18:08:42.093Z,3.83
2023-05-06T18:11:09.924Z,4.23
2023-05-06T18:13:37.741Z,3.80
2023-05-06T18:16:06.089Z,4.27
2023-05-06T18:18:33.830Z,4.43
2023-05-06T18:21:01.649Z,4.30
2023-05-06T18:23:30.052Z,3.70
2023-05-06T18:25:59.169Z,4.20
2023-05-06T18:28:26.955Z,4.30
2023-05-06T18:30:54.714Z,4.30
2023-05-06T18:33:22.484Z,4.40
2023-05-06T18:35:50.426Z,4.27
2023-05-06T18:38:18.690Z,3.80
2023-05-06T18:40:47.907Z,4.93
2023-05-06T18:43:17.124Z,3.50
2023-05-06T18:45:45.016Z,4.00
2023-05-06T18:48:13.584Z,4.30
2023-05-06T18:50:42.687Z,3.70
2023-05-06T18:53:10.742Z,4.00
2023-05-06T18:55:38.622Z,3.80
2023-05-06T18:58:06.521Z,4.50
2023-05-06T19:00:35.704Z,3.93
2023-05-06T19:03:03.526Z,4.37
2023-05-06T19:05:31.312Z,3.47
2023-05-06T19:07:58.990Z,3.70
2023-05-06T19:10:26.713Z,4.20
2023-05-06T19:12:54.514Z,4.67
2023-05-06T19:15:22.438Z,3.90
2023-05-06T19:17:51.624Z,4.17
2023-05-06T19:20:19.446Z,3.83
2023-05-06T19:22:47.165Z,3.60
2023-05-06T19:25:15.011Z,3.90
2023-05-06T19:27:42.763Z,4.60
2023-05-06T19:30:11.441Z,4.23
2023-05-06T19:32:40.330Z,3.97
2023-05-06T19:35:11.128Z,3.77
2023-05-06T19:37:39.192Z,4.70
2023-05-06T19:40:08.037Z,4.20
2023-05-06T19:42:35.917Z,4.57
2023-05-06T19:45:08.208Z,4.27
2023-05-06T19:47:36.309Z,4.60
2023-05-06T19:50:04.314Z,4.37
2023-05-06T19:52:34.659Z,4.80
2023-05-06T19:55:03.252Z,5.07
2023-05-06T19:57:31.785Z,4.60
2023-05-06T19:59:59.516Z,4.43
2023-05-06T20:02:27.336Z,4.23
2023-05-06T20:04:55.111Z,4.87
2023-05-06T20:07:23.260Z,4.30
2023-05-06T20:09:55.402Z,4.40
2023-05-06T20:12:23.404Z,4.77
2023-05-06T20:14:51.308Z,4.53
2023-05-06T20:17:19.141Z,4.90
2023-05-06T20:19:47.026Z,4.33
2023-05-06T20:22:14.833Z,4.57
2023-05-06T20:24:43.308Z,4.23
2023-05-06T20:27:12.601Z,4.23
2023-05-06T20:29:40.845Z,7.70
2023-05-06T20:32:08.594Z,4.60
2023-05-06T20:34:36.361Z,4.30
2023-05-06T20:37:04.722Z,4.33
2023-05-06T20:39:32.637Z,4.37
2023-05-06T20:42:00.921Z,4.07
2023-05-06T20:44:29.992Z,4.10
2023-05-06T20:46:57.698Z,4.40
2023-05-06T20:49:25.528Z,4.57
2023-05-06T20:51:53.272Z,4.70
2023-05-06T20:54:20.997Z,4.37
2023-05-06T20:56:48.761Z,4.40
2023-05-06T20:59:16.559Z,4.53
2023-05-06T21:01:45.860Z,5.30
2023-05-06T21:04:13.705Z,5.07
2023-05-06T21:06:41.495Z,4.63
2023-05-06T21:09:09.408Z,4.80
2023-05-06T21:11:37.292Z,4.73
2023-05-06T21:14:05.066Z,5.57
2023-05-06T21:16:32.958Z,5.00
2023-05-06T21:19:02.072Z,5.50
2023-05-06T21:21:32.457Z,5.53
2023-05-06T21:24:00.275Z,4.33
2023-05-06T21:26:27.981Z,5.33
2023-05-06T21:28:55.677Z,5.10
2023-05-06T21:31:25.194Z,5.13
2023-05-06T21:33:56.462Z,5.03
2023-05-06T21:36:25.994Z,4.57
2023-05-06T21:39:01.506Z,5.17
2023-05-06T21:41:29.302Z,5.23
2023-05-06T21:43:57.150Z,5.43
2023-05-06T21:46:25.053Z,5.20
2023-05-06T21:48:52.834Z,4.57
2023-05-06T21:51:20.699Z,5.53
2023-05-06T21:53:51.724Z,4.80
2023-05-06T21:56:19.541Z,5.10
2023-05-06T21:58:47.291Z,5.10
2023-05-06T22:01:15.486Z,4.93
2023-05-06T22:03:43.436Z,4.60
2023-05-06T22:06:11.409Z,4.73
2023-05-06T22:08:39.571Z,4.80
2023-05-06T22:11:08.675Z,4.80
2023-05-06T22:13:36.533Z,4.60
2023-05-06T22:16:04.482Z,4.47
2023-05-06T22:18:32.218Z,4.50
2023-05-06T22:21:00.157Z,4.93
2023-05-06T22:23:29.048Z,4.63
2023-05-06T22:25:58.517Z,4.70
2023-05-06T22:28:28.315Z,5.23
2023-05-06T22:30:56.094Z,4.80
2023-05-06T22:33:23.975Z,4.97
2023-05-06T22:35:51.823Z,4.47
2023-05-06T22:38:19.551Z,4.20
2023-05-06T22:40:47.309Z,4.77
2023-05-06T22:43:15.060Z,4.47
2023-05-06T22:45:44.299Z,4.67
2023-05-06T22:48:12.062Z,4.60
2023-05-06T22:50:39.929Z,5.00
2023-05-06T22:53:15.124Z,5.03
2023-05-06T22:55:43.492Z,4.73
2023-05-06T22:58:11.262Z,4.70
2023-05-06T23:00:39.050Z,4.40
2023-05-06T23:03:08.199Z,4.90
2023-05-06T23:05:36.142Z,5.63
2023-05-06T23:08:04.059Z,4.67
2023-05-06T23:10:32.020Z,4.97
2023-05-06T23:13:01.451Z,4.63
2023-05-06T23:15:29.878Z,4.70
2023-05-06T23:17:57.644Z,5.20
2023-05-06T23:20:26.838Z,4.83
2023-05-06T23:22:54.628Z,4.60
2023-05-06T23:25:22.359Z,4.73
2023-05-06T23:27:50.067Z,4.90
2023-05-06T23:30:17.785Z,4.63
2023-05-06T23:32:45.567Z,4.63
2023-05-06T23:35:13.642Z,4.67
2023-05-06T23:37:42.773Z,4.50
2023-05-06T23:40:12.553Z,4.53
2023-05-06T23:42:40.449Z,4.40
2023-05-06T23:45:09.570Z,4.20
2023-05-06T23:47:37.515Z,4.50
2023-05-06T23:50:05.831Z,4.90
2023-05-06T23:52:33.581Z,4.97
2023-05-06T23:55:02.700Z,4.10
2023-05-06T23:57:30.421Z,4.80
2023-05-06T23:59:58.331Z,4.30
